createdAt,value
2023-05-03T00:03:56.786Z,7.63
2023-05-03T00:08:58.314Z,7.95
2023-05-03T00:13:59.836Z,8.65
2023-05-03T00:19:01.363Z,7.88
2023-05-03T00:24:02.966Z,8.48
2023-05-03T00:29:04.506Z,8.05
2023-05-03T00:34:06.058Z,7.35
2023-05-03T00:39:07.638Z,7.40
2023-05-03T00:44:09.278Z,9.45
2023-05-03T00:49:11.253Z,8.23
2023-05-03T00:54:13.170Z,8.35
2023-05-03T00:59:15.002Z,7.75
2023-05-03T01:04:18.831Z,8.73
2023-05-03T01:09:38.565Z,9.15
2023-05-03T01:14:46.133Z,8.43
2023-05-03T01:19:55.040Z,8.95
2023-05-03T01:25:02.548Z,8.63
2023-05-03T01:30:05.676Z,8.95
2023-05-03T01:35:26.531Z,10.48
2023-05-03T01:40:30.786Z,9.75
2023-05-03T01:45:32.494Z,10.00
2023-05-03T01:50:34.071Z,10.15
2023-05-03T01:55:35.693Z,9.95
2023-05-03T02:00:38.490Z,10.07
2023-05-03T02:05:40.093Z,10.10
2023-05-03T02:10:44.027Z,9.13
2023-05-03T02:15:45.589Z,10.45
2023-05-03T02:20:47.263Z,9.90
2023-05-03T02:25:48.875Z,9.77
2023-05-03T02:30:50.414Z,10.32
2023-05-03T02:35:52.063Z,10.18
2023-05-03T02:40:53.682Z,9.88
2023-05-03T02:45:55.357Z,10.55
2023-05-03T02:50:58.252Z,9.98
2023-05-03T02:56:00.039Z,11.55
2023-05-03T03:01:01.732Z,10.75
2023-05-03T03:06:05.431Z,10.88
2023-05-03T03:11:09.613Z,11.05
2023-05-03T03:16:11.465Z,11.63
2023-05-03T03:21:13.211Z,11.25
2023-05-03T03:26:14.831Z,11.35
2023-05-03T03:31:16.952Z,8.70
2023-05-03T03:36:18.758Z,9.45
2023-05-03T03:41:22.819Z,10.57
2023-05-03T03:46:25.436Z,10.98
2023-05-03T03:51:30.058Z,11.65
2023-05-03T03:56:32.814Z,12.35
2023-05-03T04:01:35.223Z,12.77
2023-05-03T04:06:38.954Z,11.63
2023-05-03T04:11:45.557Z,12.43
2023-05-03T04:16:48.199Z,13.00
2023-05-03T04:21:49.944Z,13.13
2023-05-03T04:26:53.693Z,12.15
2023-05-03T04:32:01.967Z,11.80
2023-05-03T04:37:03.634Z,11.05
2023-05-03T04:42:05.354Z,10.75
2023-05-03T04:47:06.986Z,12.82
2023-05-03T04:52:08.931Z,12.77
2023-05-03T04:57:10.934Z,12.23
2023-05-03T05:02:12.586Z,14.02
2023-05-03T05:07:14.257Z,13.77
2023-05-03T05:12:18.165Z,13.02
2023-05-03T05:17:19.863Z,10.98
2023-05-03T05:22:21.950Z,7.20
2023-05-03T05:27:29.742Z,5.25
2023-05-03T05:32:33.979Z,5.88
2023-05-03T05:37:36.323Z,6.32
2023-05-03T05:42:40.058Z,5.38
2023-05-03T05:47:42.274Z,5.20
2023-05-03T05:52:44.260Z,5.43
2023-05-03T05:57:47.668Z,5.15
2023-05-03T06:02:51.524Z,5.47
2023-05-03T06:07:56.007Z,5.43
2023-05-03T06:12:57.753Z,5.22
2023-05-03T06:18:01.077Z,5.25
2023-05-03T06:23:02.716Z,4.60
2023-05-03T06:28:04.537Z,4.55
2023-05-03T06:33:12.889Z,4.68
2023-05-03T06:38:14.824Z,5.82
2023-05-03T06:43:16.934Z,5.05
2023-05-03T06:48:25.065Z,4.70
2023-05-03T06:53:26.739Z,5.32
2023-05-03T06:58:28.238Z,5.43
2023-05-03T07:03:29.821Z,4.88
2023-05-03T07:08:31.526Z,4.55
2023-05-03T07:13:33.068Z,5.18
2023-05-03T07:18:34.647Z,4.95
2023-05-03T07:23:36.206Z,4.43
2023-05-03T07:28:37.749Z,4.07
2023-05-03T07:33:39.347Z,4.88
2023-05-03T07:38:40.967Z,3.90
2023-05-03T07:43:42.673Z,3.55
2023-05-03T07:48:44.218Z,3.40
2023-05-03T07:53:45.784Z,3.85
2023-05-03T07:58:50.934Z,3.42
2023-05-03T08:03:59.076Z,4.07
2023-05-03T08:09:00.921Z,2.90
2023-05-03T08:14:02.602Z,3.53
2023-05-03T08:19:04.161Z,3.53
2023-05-03T08:24:05.782Z,4.15
2023-05-03T08:29:07.691Z,3.40
2023-05-03T08:34:09.372Z,3.80
2023-05-03T08:39:10.885Z,3.22
2023-05-03T08:44:12.639Z,3.08
2023-05-03T08:49:14.873Z,3.28
2023-05-03T08:54:16.476Z,3.22
2023-05-03T08:59:18.012Z,3.92
2023-05-03T09:04:19.714Z,3.17
2023-05-03T09:09:31.378Z,3.33
2023-05-03T09:14:45.398Z,3.72
2023-05-03T09:19:56.824Z,3.78
2023-05-03T09:25:00.389Z,3.50
2023-05-03T09:30:18.214Z,3.63
2023-05-03T09:35:19.912Z,3.83
2023-05-03T09:40:21.550Z,2.70
2023-05-03T09:45:25.919Z,2.40
2023-05-03T09:50:27.843Z,3.17
2023-05-03T09:55:40.076Z,3.33
2023-05-03T10:00:42.415Z,3.65
2023-05-03T10:05:48.494Z,2.90
2023-05-03T10:10:50.859Z,2.85
2023-05-03T10:15:59.866Z,2.63
2023-05-03T10:21:07.152Z,2.58
2023-05-03T10:26:08.659Z,2.85
2023-05-03T10:31:43.652Z,4.22
2023-05-03T10:36:49.773Z,2.95
2023-05-03T10:41:58.648Z,3.67
2023-05-03T10:47:29.831Z,3.05
2023-05-03T10:52:40.472Z,3.47
2023-05-03T10:57:47.234Z,3.30
2023-05-03T11:03:09.699Z,2.70
2023-05-03T11:08:14.084Z,2.88
2023-05-03T11:13:15.740Z,3.47
2023-05-03T11:18:17.454Z,2.83
2023-05-03T11:23:19.153Z,3.08
2023-05-03T11:28:20.785Z,2.80
2023-05-03T11:33:22.441Z,2.92
2023-05-03T11:38:23.973Z,2.55
2023-05-03T11:43:26.309Z,2.70
2023-05-03T11:48:28.035Z,3.05
2023-05-03T11:53:29.706Z,2.25
2023-05-03T11:58:31.338Z,2.17
2023-05-03T12:03:33.474Z,2.55
2023-05-03T12:08:37.905Z,2.40
2023-05-03T12:13:41.723Z,2.17
2023-05-03T12:19:01.417Z,2.67
2023-05-03T12:24:05.933Z,2.50
2023-05-03T12:29:07.765Z,2.42
2023-05-03T12:39:21.928Z,2.17
2023-05-03T12:44:24.005Z,2.53
2023-05-03T12:49:25.965Z,2.30
2023-05-03T12:54:27.883Z,2.75
2023-05-03T13:14:50.322Z,2.33
2023-05-03T13:19:53.351Z,2.70
2023-05-03T13:24:54.912Z,2.28
2023-05-03T13:29:56.558Z,2.50
2023-05-03T13:34:58.140Z,2.25
2023-05-03T13:39:59.667Z,1.85
2023-05-03T13:45:01.315Z,2.03
2023-05-03T13:50:03.195Z,2.30
2023-05-03T13:55:05.451Z,1.70
2023-05-03T14:00:07.874Z,1.60
2023-05-03T14:05:09.891Z,1.90
2023-05-03T14:10:11.969Z,2.60
2023-05-03T14:15:13.669Z,1.98
2023-05-03T14:20:15.352Z,1.77
2023-05-03T14:25:16.931Z,1.30
2023-05-03T14:30:18.565Z,1.77
2023-05-03T14:35:20.287Z,2.17
2023-05-03T14:40:22.002Z,1.60
2023-05-03T14:45:23.575Z,1.77
2023-05-03T14:50:25.296Z,3.35
2023-05-03T14:55:26.840Z,1.65
2023-05-03T15:00:28.471Z,1.92
2023-05-03T15:05:31.216Z,1.73
2023-05-03T15:10:34.179Z,2.10
2023-05-03T15:15:40.087Z,1.33
2023-05-03T15:25:43.099Z,1.58
2023-05-03T15:30:44.696Z,1.70
2023-05-03T15:35:46.289Z,1.42
2023-05-03T15:40:47.853Z,1.35
2023-05-03T15:45:52.189Z,1.30
2023-05-03T15:50:53.761Z,1.85
2023-05-03T15:55:55.816Z,1.67
2023-05-03T16:00:57.918Z,2.22
2023-05-03T16:05:59.992Z,1.80
2023-05-03T16:11:01.620Z,1.90
2023-05-03T16:16:03.324Z,1.92
2023-05-03T16:21:04.936Z,1.83
2023-05-03T16:26:13.290Z,1.73
2023-05-03T16:31:15.243Z,1.52
2023-05-03T16:36:16.869Z,1.40
2023-05-03T16:41:18.545Z,1.73
2023-05-03T16:46:20.217Z,1.50
2023-05-03T16:51:21.850Z,1.30
2023-05-03T16:56:24.533Z,1.40
2023-05-03T17:01:26.430Z,1.58
2023-05-03T17:06:28.727Z,1.52
2023-05-03T17:11:30.639Z,1.20
2023-05-03T17:16:32.234Z,1.20
2023-05-03T17:21:33.806Z,1.98
2023-05-03T17:26:35.407Z,1.13
2023-05-03T17:31:37.012Z,1.50
2023-05-03T17:36:38.560Z,1.30
2023-05-03T17:41:40.144Z,1.63
2023-05-03T17:46:41.925Z,1.55
2023-05-03T17:51:43.548Z,1.30
2023-05-03T17:56:45.113Z,1.23
2023-05-03T18:01:47.523Z,1.48
2023-05-03T18:06:49.097Z,2.03
2023-05-03T18:11:53.853Z,1.17
2023-05-03T18:16:55.445Z,2.60
2023-05-03T18:21:57.029Z,1.92
2023-05-03T18:26:58.559Z,2.15
2023-05-03T18:32:00.233Z,1.85
2023-05-03T18:37:01.871Z,1.58
2023-05-03T18:42:03.661Z,1.77
2023-05-03T18:47:05.369Z,1.88
2023-05-03T18:52:06.949Z,2.10
2023-05-03T18:57:08.539Z,1.88
2023-05-03T19:02:10.187Z,1.50
2023-05-03T19:07:11.738Z,1.73
2023-05-03T19:12:13.358Z,1.08
2023-05-03T19:17:14.925Z,1.83
2023-05-03T19:22:16.522Z,1.75
2023-05-03T19:27:18.256Z,2.40
2023-05-03T19:32:19.796Z,1.90
2023-05-03T19:37:21.346Z,1.40
2023-05-03T19:42:22.901Z,1.75
2023-05-03T19:47:24.471Z,1.83
2023-05-03T19:52:25.990Z,1.60
2023-05-03T19:57:27.566Z,1.20
2023-05-03T20:02:29.174Z,1.90
2023-05-03T20:07:30.800Z,2.03
2023-05-03T20:12:32.513Z,1.83
2023-05-03T20:17:34.146Z,2.33
2023-05-03T20:22:35.689Z,1.98
2023-05-03T20:27:37.317Z,2.50
2023-05-03T20:32:39.267Z,3.20
2023-05-03T20:37:40.860Z,2.03
2023-05-03T20:42:42.476Z,2.20
2023-05-03T20:47:44.045Z,2.50
2023-05-03T20:52:45.646Z,2.72
2023-05-03T20:57:47.317Z,3.70
2023-05-03T21:02:48.961Z,2.38
2023-05-03T21:07:51.290Z,1.95
2023-05-03T21:12:53.101Z,1.98
2023-05-03T21:17:54.741Z,2.38
2023-05-03T21:22:56.355Z,2.40
2023-05-03T21:27:57.979Z,2.45
2023-05-03T21:32:59.544Z,2.67
2023-05-03T21:38:01.210Z,3.78
2023-05-03T21:43:02.774Z,1.42
2023-05-03T21:48:04.679Z,2.03
2023-05-03T21:53:06.354Z,2.03
2023-05-03T21:58:07.886Z,2.70
2023-05-03T22:03:09.515Z,3.78
2023-05-03T22:08:11.137Z,2.60
2023-05-03T22:13:12.782Z,4.35
2023-05-03T22:18:14.345Z,2.78
2023-05-03T22:23:15.923Z,2.38
2023-05-03T22:28:17.461Z,3.70
2023-05-03T22:33:19.041Z,3.63
2023-05-03T22:38:20.716Z,2.75
2023-05-03T22:43:22.266Z,2.80
2023-05-03T22:48:23.821Z,4.03
2023-05-03T22:53:25.543Z,2.53
2023-05-03T22:58:27.654Z,2.17
2023-05-03T23:03:29.406Z,3.00
2023-05-03T23:08:31.009Z,2.65
2023-05-03T23:13:32.638Z,2.33
2023-05-03T23:18:34.355Z,2.42
2023-05-03T23:23:35.959Z,2.67
2023-05-03T23:28:37.496Z,2.13
2023-05-03T23:33:39.415Z,2.83
2023-05-03T23:38:41.258Z,2.25
2023-05-03T23:43:42.865Z,1.77
2023-05-03T23:48:44.396Z,2.10
2023-05-03T23:53:45.974Z,2.15
2023-05-03T23:58:47.593Z,2.17
